Terminal Aerodrome Forecast
Issued by NWS

Home | Current Version | Previous Version | Text Only | Print | Product List | Glossary On
Versions: 1 2 3 4 5 6 7 8 9 10 11 12 13 14 15 16
000
FTUS43 KDLH 241700
TAFHYR
TAF
KHYR 241740Z 2418/2518 10006KT P6SM SCT040 OVC060
      TEMPO 2419/2422 -RA BKN050 OVC070
     FM242200 13006KT 6SM -RA BKN050 OVC080
     FM250400 08008KT 4SM -RA BR OVC025
     FM250700 07010KT 1 1/2SM RA BR OVC009
     FM251200 05005KT 3SM -RA BR OVC008=

USA.gov is the U.S. government's official web portal to all federal, state and local government web resources and services.